Time;durP1;ratioP1;P1;durP2;ratioP2;P2;SDS_P1;SDS_P2;PMS_P1;PMS_P2;Temp;Humidity;BMP_temperature;BMP_pressure;BME280_temperature;BME280_humidity;BME280_pressure;Samples;Min_cycle;Max_cycle;Signal;HPM_P1;HPM_P2
2022/10/20 00:01:07;;;;;;;2.97;2.77;;;24.20;67.90;;;;;;5113541;28;20460;-85
2022/10/20 00:03:36;;;;;;;3.17;2.97;;;24.20;67.90;;;;;;5113669;27;20461;-80
2022/10/20 00:06:09;;;;;;;3.37;3.17;;;24.20;67.90;;;;;;5106538;28;20449;-80
2022/10/20 00:08:39;;;;;;;3.10;2.90;;;24.20;67.90;;;;;;5117964;27;20482;-81
2022/10/20 00:11:09;;;;;;;3.00;2.80;;;24.20;67.90;;;;;;5104878;28;20492;-80
2022/10/20 00:13:38;;;;;;;2.90;2.70;;;24.20;67.90;;;;;;5109594;28;20476;-80
2022/10/20 00:16:06;;;;;;;2.63;2.43;;;24.20;67.90;;;;;;5115133;27;20478;-81
2022/10/20 00:18:35;;;;;;;3.23;3.03;;;24.20;67.90;;;;;;5114959;28;20500;-80
2022/10/20 00:21:06;;;;;;;2.93;2.73;;;24.20;67.90;;;;;;5113366;28;20448;-80
2022/10/20 00:23:34;;;;;;;3.33;3.13;;;24.20;67.90;;;;;;5114367;28;20939;-80
2022/10/20 00:26:05;;;;;;;3.00;2.80;;;24.20;67.90;;;;;;5111060;28;20948;-80
2022/10/20 00:28:34;;;;;;;3.40;3.10;;;24.20;67.90;;;;;;5103281;28;20771;-80
2022/10/20 00:31:04;;;;;;;3.53;3.23;;;24.20;67.90;;;;;;5109518;28;20951;-80
2022/10/20 00:33:32;;;;;;;3.20;3.00;;;24.20;67.90;;;;;;5107642;27;20584;-81
2022/10/20 00:36:01;;;;;;;3.10;2.90;;;24.20;67.90;;;;;;5106409;27;20469;-81
2022/10/20 00:38:29;;;;;;;3.40;3.20;;;24.20;67.80;;;;;;5108493;28;20471;-81
2022/10/20 00:40:58;;;;;;;3.10;2.90;;;24.20;67.90;;;;;;5110392;28;21247;-81
2022/10/20 00:43:42;;;;;;;3.50;3.20;;;24.10;67.90;;;;;;5104085;28;20502;-80
2022/10/20 00:46:11;;;;;;;3.20;3.00;;;24.10;67.90;;;;;;5113376;28;20444;-81
2022/10/20 00:48:40;;;;;;;3.50;3.30;;;24.10;67.90;;;;;;5107139;27;20462;-81
2022/10/20 00:51:08;;;;;;;3.00;2.80;;;24.10;67.90;;;;;;5113043;28;20465;-80
2022/10/20 00:53:37;;;;;;;2.90;2.70;;;24.10;67.90;;;;;;5098456;28;20480;-80
2022/10/20 00:56:05;;;;;;;3.13;2.93;;;24.10;67.90;;;;;;5101915;27;20836;-81
2022/10/20 00:58:35;;;;;;;3.90;3.60;;;24.10;67.90;;;;;;5107863;28;20494;-83
2022/10/20 01:01:04;;;;;;;3.33;3.13;;;24.10;67.90;;;;;;5109214;28;20482;-80
2022/10/20 01:03:39;;;;;;;3.20;3.00;;;24.10;67.80;;;;;;5108171;27;20463;-81
2022/10/20 01:06:07;;;;;;;3.07;2.80;;;24.10;67.90;;;;;;5104771;28;20458;-80
2022/10/20 01:08:35;;;;;;;2.80;2.60;;;24.10;67.80;;;;;;5112966;28;20463;-80
2022/10/20 01:11:15;;;;;;;3.40;3.13;;;24.10;67.80;;;;;;5108133;28;20494;-80
2022/10/20 01:13:58;;;;;;;2.97;2.77;;;24.10;67.90;;;;;;5111148;28;20565;-81
2022/10/20 01:16:32;;;;;;;2.87;2.67;;;24.10;67.90;;;;;;5110431;28;20456;-80
2022/10/20 01:19:13;;;;;;;3.50;3.30;;;24.10;67.90;;;;;;5109762;28;20493;-80
2022/10/20 01:21:55;;;;;;;3.40;3.20;;;24.10;67.90;;;;;;5100191;28;20460;-80
2022/10/20 01:24:39;;;;;;;3.40;3.20;;;24.10;67.90;;;;;;5110224;28;20459;-82
2022/10/20 01:27:31;;;;;;;3.50;3.30;;;24.10;67.90;;;;;;5113986;28;20974;-80
2022/10/20 01:30:13;;;;;;;3.37;3.10;;;24.10;67.80;;;;;;5107370;28;20448;-80
2022/10/20 01:32:55;;;;;;;4.57;3.30;;;24.10;67.90;;;;;;5110164;27;20483;-81
2022/10/20 01:35:33;;;;;;;3.53;3.23;;;24.10;67.90;;;;;;5107049;28;20492;-81
2022/10/20 01:38:10;;;;;;;3.33;3.13;;;24.10;67.90;;;;;;5099016;28;20790;-80
2022/10/20 01:40:43;;;;;;;3.17;2.97;;;24.10;67.80;;;;;;5110046;28;20545;-81
2022/10/20 01:43:15;;;;;;;3.50;3.27;;;24.10;67.80;;;;;;5109397;28;20448;-81
2022/10/20 01:45:47;;;;;;;3.30;3.10;;;24.00;67.80;;;;;;5112191;28;20460;-83
2022/10/20 01:48:17;;;;;;;3.60;3.13;;;24.00;67.80;;;;;;5103599;28;20827;-84
2022/10/20 01:50:47;;;;;;;3.50;3.30;;;24.00;67.80;;;;;;5111326;28;20485;-81
2022/10/20 01:53:15;;;;;;;3.93;3.63;;;24.00;67.80;;;;;;5110445;28;20478;-81
2022/10/20 01:55:43;;;;;;;3.67;3.47;;;24.00;67.70;;;;;;5107761;28;20466;-80
2022/10/20 01:58:37;;;;;;;3.83;3.63;;;24.00;67.70;;;;;;5107586;28;20547;-80
2022/10/20 02:01:17;;;;;;;3.67;3.37;;;24.00;67.70;;;;;;5103052;28;20467;-81
2022/10/20 02:03:51;;;;;;;3.07;2.87;;;24.00;67.70;;;;;;5104198;28;20910;-80
2022/10/20 02:06:31;;;;;;;3.63;3.43;;;24.00;67.70;;;;;;5108464;28;20466;-80
2022/10/20 02:09:03;;;;;;;4.13;3.80;;;24.00;67.70;;;;;;5110203;28;21047;-81
2022/10/20 02:11:40;;;;;;;3.33;3.13;;;24.00;67.70;;;;;;5102563;28;20795;-81
2022/10/20 02:14:12;;;;;;;3.50;3.30;;;24.00;67.70;;;;;;5099934;28;20471;-80
2022/10/20 02:16:44;;;;;;;3.67;3.47;;;24.00;67.70;;;;;;5107321;27;20463;-80
2022/10/20 02:19:14;;;;;;;3.60;3.40;;;24.00;67.70;;;;;;5107904;28;20493;-80
2022/10/20 02:21:43;;;;;;;3.70;3.40;;;24.00;67.70;;;;;;5105161;28;20461;-81
2022/10/20 02:24:14;;;;;;;4.07;3.57;;;24.00;67.70;;;;;;5087886;28;20458;-81
2022/10/20 02:26:44;;;;;;;3.20;3.00;;;24.00;67.80;;;;;;5106364;28;20507;-81
2022/10/20 02:29:16;;;;;;;3.77;3.57;;;24.00;67.80;;;;;;5109895;28;20463;-82
2022/10/20 02:31:45;;;;;;;3.90;3.60;;;24.00;67.70;;;;;;5112232;28;20459;-81
2022/10/20 02:34:14;;;;;;;3.57;3.37;;;24.00;67.70;;;;;;5108468;28;20559;-81
2022/10/20 02:36:44;;;;;;;3.60;3.30;;;24.00;67.70;;;;;;5109770;28;20461;-81
2022/10/20 02:39:12;;;;;;;3.10;2.90;;;24.00;67.70;;;;;;5108549;28;20454;-81
2022/10/20 02:41:40;;;;;;;3.67;3.40;;;24.00;67.70;;;;;;5111116;28;20463;-81
2022/10/20 02:44:08;;;;;;;3.87;3.60;;;24.00;67.70;;;;;;5112571;28;20463;-81
2022/10/20 02:46:38;;;;;;;3.90;3.60;;;24.00;67.70;;;;;;5108667;28;20453;-83
2022/10/20 02:49:06;;;;;;;3.70;3.40;;;24.00;67.70;;;;;;5106689;28;20477;-81
2022/10/20 02:51:34;;;;;;;3.90;3.50;;;23.90;67.60;;;;;;5112248;28;20455;-81
2022/10/20 02:54:02;;;;;;;4.53;4.23;;;23.90;67.60;;;;;;5102292;28;20467;-86
2022/10/20 02:56:30;;;;;;;3.33;3.13;;;23.90;67.60;;;;;;5108795;28;21283;-81
2022/10/20 02:58:58;;;;;;;3.53;3.33;;;23.90;67.60;;;;;;5105106;28;20455;-81
2022/10/20 03:01:26;;;;;;;3.53;3.30;;;23.90;67.60;;;;;;5107856;28;20463;-81
2022/10/20 03:03:58;;;;;;;3.73;3.43;;;23.90;67.60;;;;;;5112506;28;20916;-81
2022/10/20 03:06:26;;;;;;;3.70;3.50;;;23.90;67.60;;;;;;5105323;28;20507;-81
2022/10/20 03:08:55;;;;;;;4.40;4.00;;;23.90;67.60;;;;;;5108392;28;20473;-81
2022/10/20 03:11:23;;;;;;;3.93;3.63;;;23.90;67.70;;;;;;5102114;28;20462;-81
2022/10/20 03:13:51;;;;;;;3.63;3.43;;;23.90;67.60;;;;;;5106712;28;20471;-81
2022/10/20 03:16:19;;;;;;;5.53;4.40;;;23.90;67.60;;;;;;5107675;28;20462;-80
2022/10/20 03:18:47;;;;;;;4.57;4.17;;;23.90;67.60;;;;;;5103669;28;20491;-81
2022/10/20 03:21:17;;;;;;;3.90;3.60;;;23.90;67.60;;;;;;5107658;28;20823;-81
2022/10/20 03:23:45;;;;;;;4.33;4.10;;;23.90;67.60;;;;;;5110066;28;20597;-84
2022/10/20 03:26:13;;;;;;;4.20;3.90;;;23.90;67.60;;;;;;5106118;28;20455;-80
2022/10/20 03:28:41;;;;;;;3.50;3.30;;;23.90;67.60;;;;;;5098247;28;20479;-83
2022/10/20 03:31:10;;;;;;;4.00;3.73;;;23.90;67.60;;;;;;5102047;28;20983;-81
2022/10/20 03:33:38;;;;;;;4.30;4.00;;;23.90;67.60;;;;;;5101225;28;20467;-80
2022/10/20 03:36:06;;;;;;;4.57;4.13;;;23.90;67.60;;;;;;5104626;28;20470;-84
2022/10/20 03:38:36;;;;;;;4.23;3.93;;;23.90;67.50;;;;;;5106443;28;20461;-81
2022/10/20 03:41:04;;;;;;;3.67;3.47;;;23.90;67.50;;;;;;5100640;28;20474;-81
2022/10/20 03:43:32;;;;;;;4.40;4.10;;;23.90;67.50;;;;;;5110460;28;20456;-81
2022/10/20 03:46:05;;;;;;;4.43;4.07;;;23.90;67.50;;;;;;5103319;28;20958;-85
2022/10/20 03:48:33;;;;;;;4.53;4.23;;;23.90;67.50;;;;;;5109030;28;20455;-81
2022/10/20 03:51:03;;;;;;;3.90;3.60;;;23.90;67.50;;;;;;5103960;28;20458;-81
2022/10/20 03:53:31;;;;;;;3.83;3.53;;;23.80;67.50;;;;;;5103514;28;20456;-81
2022/10/20 03:56:05;;;;;;;4.80;4.47;;;23.80;67.50;;;;;;5110516;28;20471;-80
2022/10/20 03:58:33;;;;;;;4.90;4.43;;;23.80;67.50;;;;;;5100197;28;20480;-81
2022/10/20 04:01:02;;;;;;;4.40;4.00;;;23.80;67.50;;;;;;5110641;28;20945;-80
2022/10/20 04:03:30;;;;;;;4.33;4.03;;;23.80;67.40;;;;;;5105092;28;20459;-81
2022/10/20 04:05:58;;;;;;;4.97;4.57;;;23.80;67.40;;;;;;5104446;28;20457;-81
2022/10/20 04:08:26;;;;;;;4.83;4.43;;;23.80;67.40;;;;;;5109553;28;20876;-82
2022/10/20 04:10:54;;;;;;;4.70;4.30;;;23.80;67.40;;;;;;5094496;28;20861;-83
2022/10/20 04:13:24;;;;;;;5.03;4.60;;;23.80;67.40;;;;;;5108004;28;20553;-81
2022/10/20 04:15:52;;;;;;;5.13;4.70;;;23.80;67.40;;;;;;5102102;28;20480;-81
2022/10/20 04:18:21;;;;;;;4.57;4.17;;;23.80;67.50;;;;;;5106694;28;20491;-81
2022/10/20 04:20:49;;;;;;;4.87;4.57;;;23.80;67.50;;;;;;5106028;28;20801;-84
2022/10/20 04:23:17;;;;;;;4.50;4.20;;;23.80;67.50;;;;;;5107434;28;20466;-80
2022/10/20 04:25:47;;;;;;;4.60;4.30;;;23.80;67.40;;;;;;5107438;28;20462;-82
2022/10/20 04:28:17;;;;;;;4.33;4.03;;;23.80;67.50;;;;;;5105749;28;20549;-83
2022/10/20 04:30:46;;;;;;;4.47;4.07;;;23.80;67.50;;;;;;5103579;28;20522;-83
2022/10/20 04:33:14;;;;;;;5.33;4.23;;;23.80;67.50;;;;;;5108598;28;20463;-81
2022/10/20 04:35:43;;;;;;;4.60;4.20;;;23.80;67.50;;;;;;5106258;28;20969;-81
2022/10/20 04:38:11;;;;;;;5.17;4.70;;;23.80;67.50;;;;;;5106465;28;20462;-80
2022/10/20 04:40:39;;;;;;;4.40;4.10;;;23.80;67.40;;;;;;5105364;28;20465;-80
2022/10/20 04:43:07;;;;;;;4.70;4.40;;;23.80;67.40;;;;;;5107067;28;20468;-81
2022/10/20 04:45:36;;;;;;;4.23;3.83;;;23.80;67.40;;;;;;5110482;28;20470;-81
2022/10/20 04:48:07;;;;;;;4.93;4.60;;;23.80;67.40;;;;;;5114327;27;20523;-80
2022/10/20 04:50:35;;;;;;;5.30;4.80;;;23.80;67.40;;;;;;5110764;27;20454;-81
2022/10/20 04:53:10;;;;;;;4.97;4.57;;;23.80;67.40;;;;;;5110708;28;20465;-83
2022/10/20 04:55:38;;;;;;;4.37;4.07;;;23.80;67.40;;;;;;5109952;28;20661;-80
2022/10/20 04:58:06;;;;;;;4.97;4.30;;;23.80;67.40;;;;;;5114064;27;20469;-80
2022/10/20 05:00:34;;;;;;;4.27;3.97;;;23.80;67.40;;;;;;5106981;28;20482;-81
2022/10/20 05:03:02;;;;;;;4.80;4.40;;;23.80;67.40;;;;;;5107209;28;20456;-81
2022/10/20 05:05:32;;;;;;;4.47;4.13;;;23.80;67.40;;;;;;5110134;27;20844;-81
2022/10/20 05:08:00;;;;;;;5.07;4.67;;;23.80;67.40;;;;;;5089698;28;20464;-82
2022/10/20 05:10:28;;;;;;;6.93;5.17;;;23.80;67.40;;;;;;5110265;28;20484;-81
2022/10/20 05:13:02;;;;;;;5.10;4.70;;;23.80;67.40;;;;;;5110231;28;20454;-82
2022/10/20 05:15:30;;;;;;;5.13;4.53;;;23.80;67.40;;;;;;5104889;27;20505;-80
2022/10/20 05:17:58;;;;;;;5.13;4.73;;;23.80;67.40;;;;;;5103915;28;20491;-82
2022/10/20 05:20:27;;;;;;;4.63;4.27;;;23.80;67.40;;;;;;5110018;28;20513;-81
2022/10/20 05:23:01;;;;;;;5.13;4.63;;;23.80;67.50;;;;;;5111147;28;20461;-82
2022/10/20 05:25:29;;;;;;;5.73;5.10;;;23.80;67.50;;;;;;5111366;28;20458;-81
2022/10/20 05:28:04;;;;;;;5.33;4.93;;;23.80;67.50;;;;;;5104109;27;20547;-80
2022/10/20 05:30:34;;;;;;;5.63;5.07;;;23.80;67.60;;;;;;5109887;28;20520;-80
2022/10/20 05:33:02;;;;;;;5.40;5.00;;;23.80;67.60;;;;;;5103811;28;20481;-80
2022/10/20 05:35:31;;;;;;;5.07;4.63;;;23.80;67.50;;;;;;5106560;28;21015;-81
2022/10/20 05:38:00;;;;;;;5.57;5.10;;;23.80;67.50;;;;;;5106720;28;20463;-81
2022/10/20 05:40:29;;;;;;;5.73;5.23;;;23.80;67.50;;;;;;5106256;28;20465;-81
2022/10/20 05:42:57;;;;;;;5.17;4.70;;;23.80;67.50;;;;;;5099412;28;20451;-81
2022/10/20 05:45:25;;;;;;;7.40;5.53;;;23.70;67.50;;;;;;5105445;27;20452;-82
2022/10/20 05:47:53;;;;;;;4.20;3.90;;;23.80;67.50;;;;;;5104721;28;20462;-81
2022/10/20 05:50:22;;;;;;;5.27;4.87;;;23.70;67.50;;;;;;5102573;27;20969;-81
2022/10/20 05:52:50;;;;;;;5.10;4.70;;;23.70;67.50;;;;;;5104171;28;20460;-80
2022/10/20 05:55:19;;;;;;;5.53;5.13;;;23.80;67.60;;;;;;5110970;28;20474;-80
2022/10/20 05:57:49;;;;;;;5.03;4.60;;;23.70;67.60;;;;;;5099995;28;20464;-80
2022/10/20 06:00:23;;;;;;;4.70;4.40;;;23.70;67.60;;;;;;5090101;28;20462;-80
2022/10/20 06:02:54;;;;;;;4.97;4.40;;;23.70;67.50;;;;;;5106563;28;20830;-80
2022/10/20 06:05:22;;;;;;;5.00;4.60;;;23.70;67.50;;;;;;5107605;28;20457;-79
2022/10/20 06:07:52;;;;;;;5.27;4.87;;;23.70;67.60;;;;;;5098096;28;20480;-81
2022/10/20 06:10:23;;;;;;;4.50;4.17;;;23.70;67.60;;;;;;5106488;28;20466;-81
2022/10/20 06:12:51;;;;;;;5.70;4.33;;;23.70;67.60;;;;;;5104494;28;20479;-80
2022/10/20 06:15:19;;;;;;;6.13;5.67;;;23.70;67.60;;;;;;5106550;28;20459;-80
2022/10/20 06:17:47;;;;;;;6.10;5.60;;;23.70;67.60;;;;;;5112803;28;20507;-82
2022/10/20 06:20:16;;;;;;;5.43;5.03;;;23.70;67.50;;;;;;5110444;28;20456;-82
2022/10/20 06:22:44;;;;;;;5.40;5.00;;;23.70;67.60;;;;;;5108045;28;20567;-80
2022/10/20 06:25:12;;;;;;;6.50;4.97;;;23.70;67.60;;;;;;5108765;28;20498;-81
2022/10/20 06:27:43;;;;;;;5.70;5.20;;;23.70;67.60;;;;;;5111956;28;21109;-80
2022/10/20 06:30:11;;;;;;;4.63;4.23;;;23.70;67.60;;;;;;5106678;28;20469;-81
2022/10/20 06:32:40;;;;;;;5.37;4.97;;;23.70;67.50;;;;;;5111039;28;20789;-80
2022/10/20 06:35:08;;;;;;;6.40;5.43;;;23.70;67.50;;;;;;5108183;28;20466;-81
2022/10/20 06:37:36;;;;;;;6.30;5.70;;;23.70;67.50;;;;;;5109625;27;20496;-80
2022/10/20 06:40:05;;;;;;;5.53;5.13;;;23.70;67.50;;;;;;5110548;28;20987;-82
2022/10/20 06:42:33;;;;;;;5.80;5.40;;;23.70;67.60;;;;;;5109887;28;20487;-81
2022/10/20 06:45:04;;;;;;;5.93;5.43;;;23.70;67.50;;;;;;5112705;27;20467;-80
2022/10/20 06:47:32;;;;;;;4.97;4.57;;;23.70;67.50;;;;;;5109099;28;20459;-80
2022/10/20 06:50:00;;;;;;;6.03;5.40;;;23.70;67.60;;;;;;5110159;28;20458;-81
2022/10/20 06:52:28;;;;;;;5.80;5.30;;;23.70;67.60;;;;;;5109046;28;20467;-80
2022/10/20 06:54:56;;;;;;;5.30;4.90;;;23.70;67.60;;;;;;5106730;28;20462;-80
2022/10/20 06:57:24;;;;;;;5.50;5.00;;;23.70;67.60;;;;;;5108758;28;20472;-81
2022/10/20 06:59:52;;;;;;;5.97;5.40;;;23.70;67.60;;;;;;5108000;28;20974;-80
2022/10/20 07:02:21;;;;;;;4.87;4.57;;;23.70;67.50;;;;;;5106921;28;20467;-82
2022/10/20 07:04:50;;;;;;;6.07;5.47;;;23.70;67.50;;;;;;5109493;28;20450;-81
2022/10/20 07:07:18;;;;;;;5.50;5.10;;;23.70;67.50;;;;;;5109682;28;21030;-81
2022/10/20 07:09:46;;;;;;;4.83;4.43;;;23.70;67.50;;;;;;5109197;28;20477;-80
2022/10/20 07:12:14;;;;;;;6.00;5.50;;;23.70;67.50;;;;;;5103269;28;21048;-80
2022/10/20 07:14:42;;;;;;;11.13;5.90;;;23.70;67.50;;;;;;5110572;28;20841;-82
2022/10/20 07:17:10;;;;;;;15.10;6.57;;;23.70;68.10;;;;;;5108760;28;20876;-83
2022/10/20 07:19:40;;;;;;;12.07;5.57;;;23.70;68.80;;;;;;5107616;28;20468;-82
2022/10/20 07:22:08;;;;;;;8.27;5.10;;;23.70;69.30;;;;;;5112053;28;20457;-82
2022/10/20 07:24:36;;;;;;;6.20;5.60;;;23.80;69.50;;;;;;5112629;28;20463;-83
2022/10/20 07:27:04;;;;;;;6.73;6.03;;;23.80;69.50;;;;;;5112245;28;20462;-82
2022/10/20 07:29:33;;;;;;;7.30;5.80;;;23.80;69.50;;;;;;5112634;28;20461;-83
2022/10/20 07:32:06;;;;;;;6.73;6.10;;;23.80;69.50;;;;;;5113370;28;20535;-82
2022/10/20 07:34:34;;;;;;;5.60;5.10;;;23.80;69.50;;;;;;5112773;28;20459;-83
2022/10/20 07:41:03;;;;;;;8.37;6.00;;;23.90;69.50;;;;;;5102980;28;20492;-81
2022/10/20 07:43:31;;;;;;;7.30;5.87;;;23.90;69.40;;;;;;5110961;28;20464;-81
2022/10/20 07:45:59;;;;;;;9.13;6.20;;;23.90;69.50;;;;;;5109406;28;20454;-82
2022/10/20 07:48:27;;;;;;;7.43;6.80;;;23.90;69.30;;;;;;5118663;28;20463;-82
2022/10/20 07:51:13;;;;;;;6.73;6.13;;;23.90;69.30;;;;;;5106083;28;20472;-83
2022/10/20 07:53:46;;;;;;;8.10;6.10;;;24.00;69.30;;;;;;5102451;28;20469;-82
2022/10/20 07:56:16;;;;;;;5.07;4.67;;;24.00;69.30;;;;;;5111716;28;20450;-82
2022/10/20 07:58:44;;;;;;;7.43;6.33;;;24.00;69.20;;;;;;5105103;28;20452;-83
2022/10/20 08:01:12;;;;;;;6.73;6.07;;;24.00;69.10;;;;;;5110415;28;20458;-83
2022/10/20 08:03:40;;;;;;;7.30;6.60;;;24.00;69.00;;;;;;5107755;28;20934;-82
2022/10/20 08:06:08;;;;;;;9.50;5.50;;;24.00;68.90;;;;;;5111419;28;20461;-83
2022/10/20 08:08:37;;;;;;;8.87;6.30;;;24.00;68.80;;;;;;5106371;28;20969;-82
2022/10/20 08:11:05;;;;;;;7.27;5.83;;;24.10;68.70;;;;;;5108614;28;20464;-83
2022/10/20 08:13:35;;;;;;;6.93;6.23;;;24.10;68.70;;;;;;5111448;28;20816;-83
2022/10/20 08:16:03;;;;;;;6.73;6.20;;;24.10;68.70;;;;;;5110299;28;20467;-83
2022/10/20 08:18:33;;;;;;;6.37;5.87;;;24.10;68.60;;;;;;5110928;28;20963;-83
2022/10/20 08:21:09;;;;;;;6.20;5.63;;;24.10;68.50;;;;;;5114763;28;20843;-82
2022/10/20 08:23:40;;;;;;;6.33;5.73;;;24.10;68.40;;;;;;5101346;28;20455;-85
2022/10/20 08:26:09;;;;;;;6.60;6.10;;;24.10;68.50;;;;;;5112133;28;20465;-83
2022/10/20 08:28:40;;;;;;;8.20;7.50;;;24.10;68.40;;;;;;5114331;28;20457;-81
2022/10/20 08:31:08;;;;;;;6.60;6.00;;;24.10;68.40;;;;;;5116022;28;20446;-82
2022/10/20 08:33:36;;;;;;;6.50;5.80;;;24.10;68.40;;;;;;5101616;28;20980;-82
2022/10/20 08:36:06;;;;;;;7.37;5.77;;;24.10;68.30;;;;;;5106916;28;20452;-82
2022/10/20 08:38:35;;;;;;;6.93;6.23;;;24.10;68.30;;;;;;5114945;28;20530;-82
2022/10/20 08:41:06;;;;;;;6.03;5.50;;;24.10;68.30;;;;;;5102390;28;20460;-82
2022/10/20 08:43:40;;;;;;;6.30;5.80;;;24.10;68.20;;;;;;5099901;28;20475;-83
2022/10/20 08:46:12;;;;;;;7.00;6.50;;;24.10;68.20;;;;;;5114644;28;20448;-82
2022/10/20 08:48:41;;;;;;;6.27;5.77;;;24.20;68.10;;;;;;5103846;28;20908;-82
2022/10/20 08:51:16;;;;;;;6.40;5.90;;;24.20;68.10;;;;;;5113815;28;20466;-82
2022/10/20 08:53:49;;;;;;;6.47;5.93;;;24.20;68.10;;;;;;5111112;28;20552;-82
2022/10/20 08:56:17;;;;;;;6.90;6.30;;;24.20;68.20;;;;;;5112496;28;20448;-83
2022/10/20 08:58:46;;;;;;;5.80;5.30;;;24.20;68.10;;;;;;5106511;28;20471;-82
2022/10/20 09:01:21;;;;;;;6.90;6.33;;;24.20;68.10;;;;;;5102843;28;20453;-84
2022/10/20 09:03:55;;;;;;;6.87;6.27;;;24.20;68.00;;;;;;5109593;28;20467;-83
2022/10/20 09:06:23;;;;;;;7.80;5.93;;;24.20;68.00;;;;;;5113086;28;20988;-83
2022/10/20 09:08:52;;;;;;;6.40;5.83;;;24.20;67.90;;;;;;5113257;28;20456;-84
2022/10/20 09:11:23;;;;;;;7.57;6.77;;;24.20;67.90;;;;;;5112009;28;20450;-82
2022/10/20 09:13:53;;;;;;;7.83;5.70;;;24.20;67.90;;;;;;5106279;28;20567;-82
2022/10/20 09:16:27;;;;;;;6.53;6.03;;;24.20;67.80;;;;;;5107102;28;20451;-81
2022/10/20 09:19:18;;;;;;;6.47;5.87;;;24.20;67.80;;;;;;5109519;28;20536;-84
2022/10/20 09:21:50;;;;;;;7.03;6.43;;;24.20;67.90;;;;;;5108043;28;20499;-84
2022/10/20 09:24:20;;;;;;;6.23;5.63;;;24.20;67.80;;;;;;5114477;28;20455;-82
2022/10/20 09:26:50;;;;;;;6.93;6.30;;;24.20;67.70;;;;;;5112509;28;20450;-82
2022/10/20 09:29:36;;;;;;;6.57;5.97;;;24.30;67.70;;;;;;5113387;28;20512;-83
2022/10/20 09:32:17;;;;;;;6.80;6.30;;;24.30;67.70;;;;;;5123478;27;20490;-83
2022/10/20 09:35:17;;;;;;;5.70;5.30;;;24.30;67.70;;;;;;5108960;28;20451;-87
2022/10/20 09:37:53;;;;;;;7.70;5.80;;;24.30;67.60;;;;;;5112684;28;20468;-82
2022/10/20 09:40:25;;;;;;;6.07;5.47;;;24.30;67.50;;;;;;5114238;28;20465;-81
2022/10/20 09:42:55;;;;;;;6.60;6.00;;;24.30;67.50;;;;;;5113213;28;20462;-81
2022/10/20 09:45:27;;;;;;;6.10;5.60;;;24.30;67.50;;;;;;5111731;28;21136;-82
2022/10/20 09:48:02;;;;;;;5.13;4.73;;;24.30;67.50;;;;;;5105048;28;20460;-82
2022/10/20 09:50:34;;;;;;;5.67;5.20;;;24.20;67.50;;;;;;5106182;28;20461;-82
2022/10/20 09:53:06;;;;;;;5.87;5.37;;;24.20;67.50;;;;;;5113153;28;20457;-82
2022/10/20 09:55:36;;;;;;;6.50;5.57;;;24.30;67.40;;;;;;5113761;28;21135;-82
2022/10/20 09:58:05;;;;;;;5.60;5.10;;;24.30;67.40;;;;;;5113737;28;20475;-82
2022/10/20 10:00:36;;;;;;;4.90;4.50;;;24.30;67.40;;;;;;5101401;28;20462;-84
2022/10/20 10:03:20;;;;;;;8.63;5.90;;;24.30;67.40;;;;;;5110209;28;20453;-82
2022/10/20 10:05:50;;;;;;;6.63;5.17;;;24.30;67.30;;;;;;5113939;28;20551;-83
2022/10/20 10:08:19;;;;;;;5.97;5.47;;;24.30;67.30;;;;;;5104377;28;20463;-82
2022/10/20 10:10:59;;;;;;;5.90;5.30;;;24.30;67.20;;;;;;5113648;28;20464;-83
2022/10/20 10:13:29;;;;;;;5.10;4.80;;;24.30;67.20;;;;;;5106129;28;20460;-81
2022/10/20 10:16:04;;;;;;;5.80;5.30;;;24.30;67.20;;;;;;5100796;28;20467;-82
2022/10/20 10:18:35;;;;;;;5.80;5.33;;;24.30;67.20;;;;;;5111345;27;20480;-82
2022/10/20 10:21:06;;;;;;;6.47;5.87;;;24.30;67.10;;;;;;5098653;28;20546;-82
2022/10/20 10:23:39;;;;;;;5.73;5.27;;;24.30;67.10;;;;;;5111363;28;20455;-83
2022/10/20 10:26:43;;;;;;;6.07;5.60;;;24.30;67.10;;;;;;5113699;28;20457;-83
2022/10/20 10:29:19;;;;;;;4.90;4.60;;;24.30;67.20;;;;;;5113188;28;20541;-83
2022/10/20 10:31:55;;;;;;;6.10;5.60;;;24.30;67.10;;;;;;5112829;28;20943;-82
2022/10/20 10:34:43;;;;;;;5.80;5.40;;;24.40;67.00;;;;;;5101231;28;20454;-82
2022/10/20 10:37:13;;;;;;;5.90;5.40;;;24.40;66.90;;;;;;5111335;28;20809;-82
2022/10/20 10:39:43;;;;;;;5.83;5.33;;;24.40;66.90;;;;;;5112563;28;20828;-82
2022/10/20 10:42:33;;;;;;;5.63;5.17;;;24.40;66.90;;;;;;5111225;28;20467;-82
2022/10/20 10:45:17;;;;;;;7.10;5.80;;;24.40;66.90;;;;;;5103894;28;24629;-84
2022/10/20 10:48:08;;;;;;;5.50;5.00;;;24.40;66.90;;;;;;5115869;27;20466;-86
2022/10/20 10:50:44;;;;;;;4.70;4.40;;;24.30;66.80;;;;;;5097617;28;20457;-81
2022/10/20 10:53:29;;;;;;;4.90;4.60;;;24.40;66.70;;;;;;5107128;28;20458;-82
2022/10/20 10:56:05;;;;;;;5.57;5.03;;;24.40;66.70;;;;;;5110389;28;20451;-82
2022/10/20 10:58:45;;;;;;;5.50;5.10;;;24.30;66.60;;;;;;5112874;28;20470;-82
2022/10/20 11:01:42;;;;;;;4.77;4.37;;;24.40;66.60;;;;;;5109202;28;20466;-83
2022/10/20 11:04:35;;;;;;;4.80;4.47;;;24.30;66.60;;;;;;5103746;28;20473;-83
2022/10/20 11:07:12;;;;;;;5.60;5.20;;;24.30;66.60;;;;;;5102512;28;20451;-82
2022/10/20 11:09:47;;;;;;;4.97;4.57;;;24.30;66.50;;;;;;5108254;28;20942;-81
2022/10/20 11:12:28;;;;;;;4.97;4.67;;;24.30;66.50;;;;;;5108048;28;20467;-83
2022/10/20 11:15:11;;;;;;;5.47;5.07;;;24.30;66.50;;;;;;5107052;28;20453;-81
2022/10/20 11:17:51;;;;;;;6.70;5.63;;;24.30;66.50;;;;;;5106194;28;20542;-82
2022/10/20 11:20:29;;;;;;;5.20;4.80;;;24.30;66.50;;;;;;5103223;28;20456;-84
2022/10/20 11:23:37;;;;;;;5.40;5.00;;;24.30;66.50;;;;;;5108756;28;20458;-81
2022/10/20 11:26:14;;;;;;;4.80;4.40;;;24.30;66.50;;;;;;5106047;28;20551;-82
2022/10/20 11:28:45;;;;;;;5.07;4.67;;;24.30;66.50;;;;;;5107329;28;20460;-82
2022/10/20 11:31:22;;;;;;;6.03;5.53;;;24.30;66.50;;;;;;5105388;28;20966;-83
2022/10/20 11:33:57;;;;;;;5.77;5.27;;;24.30;66.60;;;;;;5110820;28;20919;-83
2022/10/20 11:36:31;;;;;;;5.90;5.40;;;24.30;66.60;;;;;;5108406;28;20452;-83
2022/10/20 11:39:03;;;;;;;5.23;4.83;;;24.30;66.60;;;;;;5107969;28;20465;-83
2022/10/20 11:41:38;;;;;;;6.00;5.50;;;24.30;66.60;;;;;;5106775;28;20463;-83
2022/10/20 11:44:12;;;;;;;4.87;4.50;;;24.30;66.60;;;;;;5107856;28;20553;-83
2022/10/20 11:46:44;;;;;;;5.83;5.33;;;24.20;66.60;;;;;;5102890;28;20461;-83
2022/10/20 11:49:12;;;;;;;6.53;6.00;;;24.30;66.60;;;;;;5108852;28;20457;-84
2022/10/20 11:52:12;;;;;;;5.30;4.80;;;24.20;66.50;;;;;;5109851;28;20456;-84
2022/10/20 11:55:00;;;;;;;5.80;5.30;;;24.20;66.50;;;;;;5112236;27;20550;-84
2022/10/20 11:57:42;;;;;;;5.57;5.07;;;24.20;66.50;;;;;;5111593;28;20789;-84
2022/10/20 12:00:21;;;;;;;5.03;4.63;;;24.20;66.50;;;;;;5110374;28;20478;-84
2022/10/20 12:03:27;;;;;;;4.87;4.40;;;24.20;66.60;;;;;;5109994;28;20462;-86
2022/10/20 12:06:24;;;;;;;7.33;6.10;;;24.30;66.90;;;;;;5109939;28;21268;-86
2022/10/20 12:09:17;;;;;;;9.80;5.40;;;24.30;67.20;;;;;;5114828;28;20456;-89
2022/10/20 12:11:55;;;;;;;5.40;4.90;;;24.30;67.20;;;;;;5106876;27;20457;-85
2022/10/20 12:14:29;;;;;;;5.43;4.93;;;24.30;67.50;;;;;;5116328;28;20448;-85
2022/10/20 12:17:19;;;;;;;5.40;4.90;;;24.30;67.50;;;;;;5113742;28;20494;-84
2022/10/20 12:19:50;;;;;;;5.63;5.13;;;24.40;67.60;;;;;;5113144;28;20473;-84
2022/10/20 12:22:40;;;;;;;5.87;5.27;;;24.40;67.50;;;;;;5112173;28;21026;-85
2022/10/20 12:25:38;;;;;;;10.30;5.00;;;24.40;67.50;;;;;;5111325;28;20485;-86
2022/10/20 12:28:42;;;;;;;5.60;5.17;;;24.40;67.50;;;;;;5114438;28;20452;-86
2022/10/20 12:31:10;;;;;;;6.10;4.77;;;24.50;67.50;;;;;;5104939;28;20446;-85
2022/10/20 12:34:00;;;;;;;6.07;5.57;;;24.50;67.30;;;;;;5115680;28;20458;-85
2022/10/20 12:36:36;;;;;;;5.23;4.73;;;24.50;67.30;;;;;;5114800;28;20462;-84
2022/10/20 12:39:23;;;;;;;5.23;4.83;;;24.50;67.30;;;;;;5116813;28;21178;-86
2022/10/20 12:42:00;;;;;;;5.80;5.10;;;24.60;67.30;;;;;;5109749;27;20996;-85
2022/10/20 12:44:40;;;;;;;5.40;5.00;;;24.60;67.40;;;;;;5112554;28;20459;-84
2022/10/20 12:47:09;;;;;;;4.57;4.27;;;24.60;67.40;;;;;;5115512;28;20456;-84
2022/10/20 12:49:40;;;;;;;5.17;4.67;;;24.60;67.40;;;;;;5114793;28;20824;-83
2022/10/20 12:52:19;;;;;;;5.77;5.27;;;24.60;67.40;;;;;;5108490;28;20462;-83
2022/10/20 12:54:55;;;;;;;5.13;4.63;;;24.60;67.40;;;;;;5109645;28;20973;-85
2022/10/20 12:57:34;;;;;;;5.10;4.70;;;24.70;67.30;;;;;;5115137;28;20947;-84
2022/10/20 13:00:06;;;;;;;5.27;4.87;;;24.70;67.30;;;;;;5116024;28;20465;-85
2022/10/20 13:02:49;;;;;;;5.50;5.00;;;24.70;67.40;;;;;;5108691;28;20971;-85
2022/10/20 13:05:42;;;;;;;4.60;4.20;;;24.70;67.40;;;;;;5110348;28;20462;-85
2022/10/20 13:08:32;;;;;;;5.03;4.40;;;24.80;67.50;;;;;;5113791;28;20457;-84
2022/10/20 13:11:38;;;;;;;4.33;3.93;;;24.80;67.40;;;;;;5109546;28;20478;-85
2022/10/20 13:14:21;;;;;;;6.50;4.60;;;24.80;67.40;;;;;;5109372;28;20548;-84
2022/10/20 13:17:11;;;;;;;4.70;4.30;;;24.80;67.50;;;;;;5115277;28;20519;-83
2022/10/20 13:19:47;;;;;;;4.53;4.13;;;24.80;67.50;;;;;;5114472;28;20539;-89